Time;durP1;ratioP1;P1;durP2;ratioP2;P2;SDS_P1;SDS_P2;PMS_P1;PMS_P2;Temp;Humidity;BMP_temperature;BMP_pressure;BME280_temperature;BME280_humidity;BME280_pressure;Samples;Min_cycle;Max_cycle;Signal;HPM_P1;HPM_P2
2023/03/15 00:02:06;;;;;;;3.60;1.80;;;;;;;4.95;46.10;97716.48;105610;1254;75870;-23
2023/03/15 00:04:38;;;;;;;7.80;2.10;;;;;;;4.93;46.28;97712.73;105809;1254;74163;-24
2023/03/15 00:07:06;;;;;;;2.20;1.40;;;;;;;4.87;46.66;97709.84;105587;1254;61068;-25
2023/03/15 00:09:35;;;;;;;4.90;1.80;;;;;;;4.86;46.30;97712.89;105516;1257;61647;-23
2023/03/15 00:12:04;;;;;;;2.20;1.20;;;;;;;4.83;46.28;97710.59;105567;1256;75357;-23
2023/03/15 00:14:32;;;;;;;2.50;1.60;;;;;;;4.81;46.73;97715.06;105371;1260;75680;-23
2023/03/15 00:17:01;;;;;;;1.90;1.10;;;;;;;4.77;46.75;97717.21;105620;1256;72062;-23
2023/03/15 00:19:39;;;;;;;6.50;1.60;;;;;;;4.72;46.84;97718.99;105580;1254;61058;-23
2023/03/15 00:22:08;;;;;;;4.10;1.30;;;;;;;4.69;46.73;97718.67;105570;1254;60923;-23
2023/03/15 00:24:37;;;;;;;2.30;1.10;;;;;;;4.63;47.21;97719.51;105518;1254;74993;-23
2023/03/15 00:27:06;;;;;;;2.80;1.50;;;;;;;4.58;47.36;97717.15;105555;1254;75672;-23
2023/03/15 00:29:35;;;;;;;5.60;2.20;;;;;;;4.53;47.46;97712.73;105334;1254;73933;-23
2023/03/15 00:32:03;;;;;;;3.20;1.70;;;;;;;4.49;47.32;97711.52;105904;1254;61154;-23
2023/03/15 00:34:33;;;;;;;1.90;1.40;;;;;;;4.46;47.35;97713.08;105735;1259;61273;-23
2023/03/15 00:37:02;;;;;;;2.60;1.40;;;;;;;4.44;47.29;97711.70;105924;1254;75369;-23
2023/03/15 00:39:38;;;;;;;7.60;2.00;;;;;;;4.40;47.48;97714.96;105726;1254;75888;-23
2023/03/15 00:42:09;;;;;;;2.30;1.40;;;;;;;4.33;48.09;97707.53;105925;1256;74006;-23
2023/03/15 00:44:42;;;;;;;2.40;1.70;;;;;;;4.26;48.51;97707.61;105676;1260;60978;-23
2023/03/15 00:47:12;;;;;;;3.10;1.50;;;;;;;4.18;48.69;97707.33;105679;1260;61692;-24
2023/03/15 00:49:42;;;;;;;5.50;1.50;;;;;;;4.10;48.78;97707.77;105622;1259;74374;-23
2023/03/15 00:52:11;;;;;;;2.00;1.10;;;;;;;4.04;48.99;97703.36;105568;1256;76523;-23
2023/03/15 00:54:40;;;;;;;3.60;1.80;;;;;;;3.99;48.92;97693.29;105541;1256;74256;-23
2023/03/15 00:57:10;;;;;;;7.10;1.80;;;;;;;3.98;48.50;97691.63;105541;1253;61154;-23
2023/03/15 00:59:40;;;;;;;2.10;1.30;;;;;;;3.95;49.02;97699.59;105551;1254;62838;-24
2023/03/15 01:02:13;;;;;;;2.20;1.40;;;;;;;3.91;49.06;97705.03;105750;1256;75359;-24
2023/03/15 01:04:42;;;;;;;3.80;1.90;;;;;;;3.87;49.07;97699.88;105788;1257;75691;-23
2023/03/15 01:07:11;;;;;;;2.60;1.70;;;;;;;3.82;49.26;97687.02;105483;1255;74277;-23
2023/03/15 01:09:40;;;;;;;7.70;1.80;;;;;;;3.79;49.41;97686.75;105574;1254;61056;-23
2023/03/15 01:12:09;;;;;;;6.30;1.60;;;;;;;3.74;49.63;97683.33;105482;1259;61167;-23
2023/03/15 01:14:39;;;;;;;2.90;1.40;;;;;;;3.67;49.26;97682.78;105536;1254;75392;-23
2023/03/15 01:17:07;;;;;;;5.30;1.50;;;;;;;3.67;49.48;97686.63;105665;1259;76234;-23
2023/03/15 01:19:36;;;;;;;4.60;2.90;;;;;;;3.63;49.55;97681.75;105750;1254;74200;-23
2023/03/15 01:22:05;;;;;;;2.20;1.20;;;;;;;3.57;49.84;97686.27;105691;1253;61281;-23
2023/03/15 01:24:33;;;;;;;3.30;1.50;;;;;;;3.51;50.02;97688.46;105734;1254;61877;-23
2023/03/15 01:27:02;;;;;;;2.30;1.10;;;;;;;3.49;49.69;97688.64;105502;1254;75096;-23
2023/03/15 01:29:31;;;;;;;4.30;1.30;;;;;;;3.46;50.15;97694.15;105552;1254;75620;-23
2023/03/15 01:32:02;;;;;;;6.20;1.70;;;;;;;3.41;49.94;97691.23;105509;1255;74133;-23
2023/03/15 01:34:31;;;;;;;2.60;2.00;;;;;;;3.41;50.10;97692.42;105486;1254;61228;-23
2023/03/15 01:37:01;;;;;;;2.40;1.10;;;;;;;3.37;50.08;97690.80;105513;1254;62576;-23
2023/03/15 01:39:36;;;;;;;2.40;1.30;;;;;;;3.34;50.38;97688.98;105597;1256;75313;-23
2023/03/15 01:42:10;;;;;;;1.30;1.00;;;;;;;3.30;50.56;97692.38;105487;1254;75911;-23
2023/03/15 01:44:59;;;;;;;2.90;1.60;;;;;;;3.26;50.61;97693.67;105583;1254;74170;-23
2023/03/15 01:47:28;;;;;;;3.20;1.80;;;;;;;3.22;50.90;97698.77;105280;1254;61218;-23
2023/03/15 01:50:04;;;;;;;5.50;1.50;;;;;;;3.19;51.08;97705.02;105597;1255;61836;-27
2023/03/15 01:52:36;;;;;;;4.70;1.70;;;;;;;3.16;51.47;97706.77;105600;1254;75441;-25
2023/03/15 01:55:12;;;;;;;4.80;1.20;;;;;;;3.15;51.32;97708.23;105323;1255;75610;-26
2023/03/15 01:57:54;;;;;;;;;;;;;;;3.09;51.59;97704.17;105596;1254;73952;-26
2023/03/15 02:00:25;;;;;;;2.20;1.30;;;;;;;3.08;51.49;97701.87;105602;1254;61149;-26
2023/03/15 02:03:03;;;;;;;5.10;1.60;;;;;;;3.06;51.68;97702.66;105653;1254;61048;-25
2023/03/15 02:05:38;;;;;;;2.40;1.50;;;;;;;3.08;51.39;97700.46;105356;1254;75458;-24
2023/03/15 02:08:07;;;;;;;4.20;1.60;;;;;;;3.13;50.83;97706.32;105287;1254;75796;-24
2023/03/15 02:10:48;;;;;;;3.10;1.70;;;;;;;3.15;50.86;97705.62;105507;1254;73196;-24
2023/03/15 02:13:23;;;;;;;1.60;0.90;;;;;;;3.15;51.10;97706.86;105434;1254;61131;-24
2023/03/15 02:15:53;;;;;;;2.30;1.30;;;;;;;3.15;50.85;97702.89;105328;1254;60995;-24
2023/03/15 02:18:26;;;;;;;4.30;1.80;;;;;;;3.15;50.95;97705.14;105537;1254;75482;-24
2023/03/15 02:21:00;;;;;;;2.00;1.50;;;;;;;3.14;50.57;97702.46;105685;1256;75887;-24
2023/03/15 02:23:30;;;;;;;2.20;1.40;;;;;;;3.16;50.76;97709.15;105563;1254;73030;-24
2023/03/15 02:26:02;;;;;;;2.40;1.40;;;;;;;3.13;50.86;97705.73;105385;1261;61037;-24
2023/03/15 02:28:33;;;;;;;4.40;1.50;;;;;;;3.12;51.01;97709.23;105481;1259;61625;-24
2023/03/15 02:31:02;;;;;;;4.30;1.50;;;;;;;3.09;50.97;97711.00;105539;1254;75439;-24
2023/03/15 02:33:35;;;;;;;3.50;1.20;;;;;;;3.09;50.62;97712.78;105621;1254;76486;-24
2023/03/15 02:36:19;;;;;;;2.00;1.30;;;;;;;3.09;50.96;97712.73;105425;1259;74186;-24
2023/03/15 02:38:49;;;;;;;2.90;1.40;;;;;;;3.10;50.60;97714.39;105458;1254;60995;-24
2023/03/15 02:41:21;;;;;;;4.90;1.50;;;;;;;3.11;51.08;97717.05;105314;1262;61625;-24
2023/03/15 02:43:52;;;;;;;2.50;1.50;;;;;;;3.11;50.83;97714.95;105300;1260;75289;-24
2023/03/15 02:46:20;;;;;;;3.10;1.30;;;;;;;3.15;50.32;97710.09;105492;1259;75814;-24
2023/03/15 02:48:52;;;;;;;2.30;1.40;;;;;;;3.19;50.55;97720.63;105522;1254;74158;-24
2023/03/15 02:51:26;;;;;;;3.10;1.50;;;;;;;3.20;50.49;97712.63;105272;1256;61057;-24
2023/03/15 02:53:56;;;;;;;2.70;1.20;;;;;;;3.23;50.42;97713.48;105234;1254;61196;-24
2023/03/15 02:56:33;;;;;;;2.20;1.10;;;;;;;3.25;50.27;97713.85;105528;1254;75376;-24
2023/03/15 02:59:02;;;;;;;2.60;1.50;;;;;;;3.28;50.15;97712.79;105653;1254;74972;-24
2023/03/15 03:01:31;;;;;;;4.00;1.30;;;;;;;3.30;50.54;97706.64;105909;1254;74158;-24
2023/03/15 03:04:00;;;;;;;2.50;1.40;;;;;;;3.28;50.40;97707.95;105596;1255;61077;-24
2023/03/15 03:06:29;;;;;;;2.80;1.10;;;;;;;3.28;50.03;97702.80;105525;1256;61584;-24
2023/03/15 03:10:48;;;;;;;3.40;1.10;;;;;;;3.29;50.09;97701.72;103028;1285;600123;-24
2023/03/15 03:13:17;;;;;;;1.80;1.10;;;;;;;3.26;50.46;97696.95;104867;1269;61155;-24
2023/03/15 03:15:57;;;;;;;3.10;1.30;;;;;;;3.24;50.14;97693.17;105170;1268;62146;-24
2023/03/15 03:18:34;;;;;;;1.90;1.00;;;;;;;3.22;50.27;97700.14;104777;1271;73823;-24
2023/03/15 03:21:06;;;;;;;3.90;1.40;;;;;;;3.22;50.54;97702.23;105136;1264;75673;-24
2023/03/15 03:23:37;;;;;;;1.20;1.00;;;;;;;3.21;50.24;97696.11;103380;1269;2127646;-24
2023/03/15 03:26:15;;;;;;;2.90;1.60;;;;;;;3.20;50.23;97696.70;105227;1264;61113;-24
2023/03/15 03:28:48;;;;;;;2.20;1.10;;;;;;;3.21;50.02;97699.00;105107;1269;61895;-24
2023/03/15 03:31:21;;;;;;;2.80;1.40;;;;;;;3.22;49.76;97698.98;105275;1266;73576;-24
2023/03/15 03:33:55;;;;;;;1.40;1.10;;;;;;;3.21;49.89;97702.11;104841;1263;75863;-24
2023/03/15 03:36:24;;;;;;;2.20;1.50;;;;;;;3.21;49.80;97699.35;104867;1271;73955;-24
2023/03/15 03:38:53;;;;;;;1.00;0.80;;;;;;;3.21;49.81;97696.48;105194;1263;61113;-24
2023/03/15 03:41:21;;;;;;;2.60;1.20;;;;;;;3.22;49.89;97697.45;105248;1263;61093;-24
2023/03/15 03:43:50;;;;;;;2.00;1.20;;;;;;;3.21;49.62;97700.23;105224;1263;73593;-24
2023/03/15 03:46:19;;;;;;;4.10;1.30;;;;;;;3.20;49.67;97696.34;105087;1265;75875;-24
2023/03/15 03:48:50;;;;;;;2.30;1.10;;;;;;;3.19;49.68;97693.66;104777;1264;74127;-24
2023/03/15 03:51:19;;;;;;;1.20;1.00;;;;;;;3.19;49.56;97702.59;104896;1266;61700;-24
2023/03/15 03:53:49;;;;;;;1.50;1.10;;;;;;;3.19;48.99;97706.71;105462;1257;61056;-24
2023/03/15 03:56:17;;;;;;;1.50;0.90;;;;;;;3.20;49.05;97711.81;105555;1256;74611;-24
2023/03/15 03:58:50;;;;;;;0.90;0.60;;;;;;;3.20;48.39;97714.20;105482;1262;75911;-24
2023/03/15 04:01:23;;;;;;;0.70;0.70;;;;;;;3.21;48.21;97715.98;105622;1257;73328;-24
2023/03/15 04:03:53;;;;;;;1.50;1.20;;;;;;;3.22;48.29;97721.41;105649;1256;61190;-24
2023/03/15 04:06:23;;;;;;;2.10;1.00;;;;;;;3.22;48.46;97717.52;105629;1256;61985;-24
2023/03/15 04:08:53;;;;;;;4.20;1.30;;;;;;;3.20;48.70;97715.04;105628;1257;74552;-24
2023/03/15 04:11:35;;;;;;;2.60;1.00;;;;;;;3.18;48.99;97707.65;105624;1258;75913;-24
2023/03/15 04:14:10;;;;;;;0.90;0.80;;;;;;;3.16;48.84;97705.09;105340;1259;73538;-24
2023/03/15 04:16:40;;;;;;;3.80;1.30;;;;;;;3.15;48.66;97704.98;105188;1258;61247;-24
2023/03/15 04:19:12;;;;;;;3.90;1.20;;;;;;;3.15;48.36;97702.42;105864;1256;61577;-24
2023/03/15 04:21:45;;;;;;;2.10;1.10;;;;;;;3.15;47.85;97703.77;105697;1253;74413;-24
2023/03/15 04:24:21;;;;;;;2.00;1.40;;;;;;;3.14;48.27;97698.15;105716;1258;74837;-23
2023/03/15 04:27:02;;;;;;;2.60;1.00;;;;;;;3.13;48.69;97697.02;105675;1253;74183;-24
2023/03/15 04:29:51;;;;;;;2.60;1.40;;;;;;;3.10;48.62;97698.29;105866;1253;61681;-24
2023/03/15 04:32:31;;;;;;;3.40;1.30;;;;;;;3.07;48.53;97703.10;105769;1257;61894;-24
2023/03/15 04:35:10;;;;;;;4.90;1.30;;;;;;;3.07;47.99;97703.31;105759;1254;74712;-24
2023/03/15 04:38:02;;;;;;;2.40;1.30;;;;;;;3.08;48.24;97704.45;105858;1253;75926;-24
2023/03/15 04:40:56;;;;;;;2.80;1.20;;;;;;;3.06;48.14;97709.55;105865;1256;73252;-24
2023/03/15 04:43:48;;;;;;;7.70;1.40;;;;;;;3.06;48.31;97715.73;105366;1260;61195;-24
2023/03/15 04:46:36;;;;;;;6.30;1.30;;;;;;;3.06;48.44;97721.70;105863;1256;61975;-24
2023/03/15 04:49:30;;;;;;;2.50;1.30;;;;;;;3.07;48.41;97720.43;105447;1253;74434;-24
2023/03/15 04:52:15;;;;;;;1.50;0.80;;;;;;;3.08;48.19;97716.77;105726;1253;75762;-24
2023/03/15 04:54:57;;;;;;;2.40;1.00;;;;;;;3.09;48.39;97716.14;105810;1253;74359;-24
2023/03/15 04:57:51;;;;;;;1.90;1.30;;;;;;;3.10;48.77;97718.46;105654;1253;61045;-24
2023/03/15 05:01:02;;;;;;;2.50;1.30;;;;;;;3.14;48.60;97717.88;105071;1262;61660;-24
2023/03/15 05:03:57;;;;;;;1.50;0.80;;;;;;;3.22;48.49;97723.66;105374;1260;74629;-24
2023/03/15 05:06:49;;;;;;;2.90;1.20;;;;;;;3.31;48.15;97720.13;105666;1253;75875;-24
2023/03/15 05:09:38;;;;;;;3.30;1.60;;;;;;;3.39;48.35;97718.01;105702;1257;73640;-24
2023/03/15 05:12:13;;;;;;;2.10;1.30;;;;;;;3.43;48.13;97711.85;105783;1253;61037;-24
2023/03/15 05:15:01;;;;;;;2.00;1.20;;;;;;;3.46;48.49;97714.39;105531;1256;61905;-24
2023/03/15 05:17:32;;;;;;;1.30;1.10;;;;;;;3.47;48.38;97724.79;105827;1256;73980;-24
2023/03/15 05:20:35;;;;;;;;;;;;;;;3.56;48.06;97726.86;105672;1253;75817;-24
2023/03/15 05:23:23;;;;;;;1.80;0.80;;;;;;;3.64;48.08;97729.52;105874;1253;74261;-24
2023/03/15 05:26:23;;;;;;;2.10;1.30;;;;;;;3.77;47.42;97729.27;105776;1254;61120;-24
2023/03/15 05:29:20;;;;;;;1.20;0.90;;;;;;;3.78;46.55;97734.38;105635;1257;61536;-24
2023/03/15 05:32:03;;;;;;;2.10;1.20;;;;;;;3.77;46.59;97740.98;105729;1253;73389;-24
2023/03/15 05:34:55;;;;;;;1.90;1.00;;;;;;;3.79;46.41;97733.10;105544;1258;75698;-24
2023/03/15 05:37:32;;;;;;;2.10;1.20;;;;;;;3.82;45.85;97734.73;105837;1257;74168;-24
2023/03/15 05:40:21;;;;;;;3.00;1.10;;;;;;;3.86;46.04;97739.46;105556;1253;61167;-24
2023/03/15 05:43:23;;;;;;;1.60;0.90;;;;;;;3.90;46.15;97749.76;105632;1254;61928;-24
2023/03/15 05:46:18;;;;;;;1.50;0.90;;;;;;;3.98;45.52;97754.17;105549;1253;74459;-24
2023/03/15 05:49:03;;;;;;;1.80;1.30;;;;;;;4.09;45.99;97759.89;105839;1253;75656;-24
2023/03/15 05:51:46;;;;;;;1.70;1.00;;;;;;;4.16;45.44;97765.51;105851;1254;74252;-24
2023/03/15 05:54:50;;;;;;;2.40;1.30;;;;;;;4.19;45.28;97755.75;105457;1260;61584;-24
2023/03/15 05:57:40;;;;;;;2.00;1.10;;;;;;;4.16;45.26;97760.17;105767;1257;61600;-24
2023/03/15 06:00:37;;;;;;;4.20;1.80;;;;;;;4.19;44.90;97768.06;105563;1254;74336;-23
2023/03/15 06:03:09;;;;;;;3.80;1.50;;;;;;;4.25;45.15;97766.41;105676;1254;75888;-24
2023/03/15 06:05:58;;;;;;;1.90;1.10;;;;;;;4.29;45.27;97762.66;105840;1252;73998;-23
2023/03/15 06:08:34;;;;;;;2.10;1.20;;;;;;;4.31;44.54;97763.73;105873;1253;61103;-24
2023/03/15 06:11:05;;;;;;;3.40;1.70;;;;;;;4.31;44.71;97765.45;105561;1256;61190;-23
2023/03/15 06:13:34;;;;;;;1.80;1.20;;;;;;;4.32;44.48;97771.58;105562;1253;74556;-23
2023/03/15 06:16:09;;;;;;;9.80;1.10;;;;;;;4.32;44.69;97780.33;105407;1258;75772;-23
2023/03/15 06:18:41;;;;;;;1.40;0.90;;;;;;;4.40;44.73;97782.13;105420;1253;74060;-24
2023/03/15 06:21:10;;;;;;;1.90;1.40;;;;;;;4.47;44.19;97783.51;105457;1258;61127;-24
2023/03/15 06:23:40;;;;;;;1.50;1.20;;;;;;;4.50;43.88;97794.92;105496;1253;61126;-24
2023/03/15 06:26:10;;;;;;;2.60;1.30;;;;;;;4.51;43.43;97796.73;105684;1254;74734;-24
2023/03/15 06:28:38;;;;;;;1.80;0.90;;;;;;;4.44;43.21;97800.71;105729;1253;75772;-24
2023/03/15 06:31:10;;;;;;;1.90;1.30;;;;;;;4.39;43.77;97796.27;105440;1258;73930;-24
2023/03/15 06:33:47;;;;;;;3.40;1.50;;;;;;;4.36;44.26;97800.31;105547;1253;61068;-24
2023/03/15 06:36:16;;;;;;;2.30;1.20;;;;;;;4.34;44.21;97800.27;105768;1254;61906;-24
2023/03/15 06:38:45;;;;;;;1.00;0.70;;;;;;;4.32;44.23;97796.34;105559;1257;73531;-24
2023/03/15 06:41:14;;;;;;;2.10;1.10;;;;;;;4.28;44.25;97791.96;105663;1254;75518;-24
2023/03/15 06:43:50;;;;;;;3.50;1.50;;;;;;;4.25;44.33;97792.30;105857;1253;74450;-24
2023/03/15 06:46:19;;;;;;;2.80;1.40;;;;;;;4.29;45.52;97793.27;105755;1253;61122;-24
2023/03/15 06:48:48;;;;;;;2.10;1.00;;;;;;;4.26;45.05;97792.73;105889;1253;61853;-24
2023/03/15 06:51:18;;;;;;;1.30;0.90;;;;;;;4.30;45.67;97796.61;105802;1254;74334;-24
2023/03/15 06:53:47;;;;;;;4.40;1.70;;;;;;;4.34;45.40;97803.73;105542;1253;76446;-25
2023/03/15 06:56:17;;;;;;;1.80;0.90;;;;;;;4.35;45.76;97804.02;105427;1253;74008;-24
2023/03/15 06:58:46;;;;;;;2.30;1.30;;;;;;;4.40;46.08;97802.36;105535;1253;60983;-24
2023/03/15 07:01:20;;;;;;;1.60;1.10;;;;;;;4.45;45.52;97804.58;105446;1253;61912;-24
2023/03/15 07:03:50;;;;;;;2.10;1.30;;;;;;;4.49;45.43;97800.00;105471;1253;74529;-24
2023/03/15 07:06:19;;;;;;;2.40;1.10;;;;;;;4.57;45.24;97803.32;105542;1257;75575;-25
2023/03/15 07:08:48;;;;;;;3.80;1.60;;;;;;;4.63;45.06;97807.52;105575;1253;74310;-24
2023/03/15 07:11:17;;;;;;;2.10;1.30;;;;;;;4.72;45.36;97806.83;105712;1257;61342;-24
2023/03/15 07:13:45;;;;;;;2.50;1.30;;;;;;;4.79;45.11;97808.89;105583;1256;61635;-24
2023/03/15 07:16:14;;;;;;;4.30;1.30;;;;;;;4.88;44.85;97812.31;105725;1253;74320;-24
2023/03/15 07:18:43;;;;;;;2.20;1.20;;;;;;;4.91;44.89;97813.79;105695;1258;75264;-26
2023/03/15 07:21:12;;;;;;;2.60;1.40;;;;;;;5.00;44.58;97813.95;105823;1253;74195;-26
2023/03/15 07:23:41;;;;;;;1.90;1.20;;;;;;;5.03;43.90;97813.59;105891;1257;61041;-26
2023/03/15 07:26:10;;;;;;;5.10;1.80;;;;;;;5.07;44.41;97816.36;105615;1258;61813;-26
2023/03/15 07:28:38;;;;;;;3.30;1.60;;;;;;;5.15;44.23;97817.64;105603;1253;74498;-27
2023/03/15 07:31:07;;;;;;;3.40;1.80;;;;;;;5.16;44.40;97819.09;105584;1253;75583;-28
2023/03/15 07:33:36;;;;;;;2.40;1.20;;;;;;;5.17;44.94;97819.52;105669;1253;73258;-28
2023/03/15 07:36:06;;;;;;;2.60;1.50;;;;;;;5.23;44.81;97818.89;105860;1253;61191;-25
2023/03/15 07:38:34;;;;;;;3.20;1.20;;;;;;;5.23;44.85;97814.27;105569;1252;61181;-25
2023/03/15 07:41:06;;;;;;;1.80;1.30;;;;;;;5.28;44.80;97815.78;105707;1253;75612;-25
2023/03/15 07:43:38;;;;;;;2.40;1.50;;;;;;;5.28;44.34;97820.89;105708;1256;75603;-24
2023/03/15 07:46:12;;;;;;;3.60;1.20;;;;;;;5.27;44.90;97819.27;105593;1254;74398;-25
2023/03/15 07:48:42;;;;;;;1.80;1.20;;;;;;;5.35;44.64;97820.00;105689;1252;61053;-24
2023/03/15 07:51:11;;;;;;;2.20;1.70;;;;;;;5.41;44.05;97818.48;105707;1254;61599;-24
2023/03/15 07:53:42;;;;;;;2.60;1.40;;;;;;;5.46;43.62;97819.17;105583;1258;74745;-23
2023/03/15 07:56:13;;;;;;;2.40;2.00;;;;;;;5.29;43.10;97813.08;105541;1257;75832;-23
2023/03/15 07:58:41;;;;;;;4.80;1.40;;;;;;;5.41;43.40;97810.10;105840;1253;74263;-23
2023/03/15 08:01:13;;;;;;;2.80;1.50;;;;;;;5.64;43.26;97807.41;105663;1253;61273;-24
2023/03/15 08:03:42;;;;;;;2.60;1.80;;;;;;;5.81;42.97;97808.40;105552;1256;62025;-24
2023/03/15 08:06:11;;;;;;;2.90;1.30;;;;;;;5.90;43.03;97801.90;105541;1255;75322;-24
2023/03/15 08:08:43;;;;;;;3.50;1.50;;;;;;;6.01;42.69;97805.61;105631;1253;75822;-23
2023/03/15 08:11:11;;;;;;;2.60;1.60;;;;;;;6.20;42.73;97807.30;105555;1253;74333;-23
2023/03/15 08:13:42;;;;;;;4.10;2.20;;;;;;;6.56;42.30;97800.38;105581;1257;61187;-24
2023/03/15 08:16:10;;;;;;;3.10;1.60;;;;;;;6.72;41.47;97797.00;105681;1253;61923;-24
2023/03/15 08:18:45;;;;;;;4.10;2.00;;;;;;;6.79;42.35;97792.25;105462;1253;75375;-25
2023/03/15 08:21:16;;;;;;;2.50;1.30;;;;;;;6.72;40.63;97791.79;105609;1257;75609;-25
2023/03/15 08:23:44;;;;;;;2.80;1.70;;;;;;;6.71;40.95;97794.10;105738;1256;73046;-27
2023/03/15 08:26:15;;;;;;;2.30;1.10;;;;;;;6.75;40.96;97792.27;105656;1254;61112;-24
2023/03/15 08:28:45;;;;;;;2.60;1.20;;;;;;;6.77;41.50;97790.99;105597;1253;61622;-27
2023/03/15 08:31:13;;;;;;;2.60;1.30;;;;;;;6.84;41.44;97793.90;105752;1253;74987;-27
2023/03/15 08:33:42;;;;;;;3.90;1.50;;;;;;;6.77;41.37;97794.67;105744;1253;75577;-24
2023/03/15 08:36:11;;;;;;;3.10;1.30;;;;;;;7.02;41.02;97795.78;105885;1253;74206;-26
2023/03/15 08:38:41;;;;;;;2.70;1.70;;;;;;;7.09;40.90;97795.05;105856;1254;61756;-26
2023/03/15 08:41:10;;;;;;;3.20;1.60;;;;;;;7.35;41.11;97808.65;105867;1253;61903;-25
2023/03/15 08:43:39;;;;;;;2.80;1.80;;;;;;;7.62;40.39;97812.16;105883;1253;75367;-25
2023/03/15 08:46:08;;;;;;;2.30;1.70;;;;;;;7.87;40.33;97806.65;105687;1253;75667;-22
2023/03/15 08:48:37;;;;;;;2.10;1.30;;;;;;;7.91;39.39;97805.84;105753;1253;74200;-22
2023/03/15 08:51:06;;;;;;;2.30;1.20;;;;;;;7.89;39.20;97810.83;105702;1258;61923;-23
2023/03/15 08:53:34;;;;;;;2.10;1.50;;;;;;;7.95;39.08;97811.46;105535;1253;60983;-22
2023/03/15 08:56:03;;;;;;;2.30;1.60;;;;;;;8.12;39.72;97823.29;105680;1253;73362;-23
2023/03/15 08:58:33;;;;;;;3.10;1.60;;;;;;;8.27;39.35;97828.86;105660;1254;75495;-23
2023/03/15 09:01:03;;;;;;;4.70;2.10;;;;;;;8.37;39.52;97827.75;105800;1253;74285;-23
2023/03/15 09:03:32;;;;;;;3.40;1.80;;;;;;;8.77;39.94;97836.41;105879;1253;62206;-24
2023/03/15 09:06:00;;;;;;;1.70;1.10;;;;;;;8.97;39.00;97836.84;105854;1253;61098;-23
2023/03/15 09:08:32;;;;;;;2.30;1.40;;;;;;;9.01;39.36;97847.15;105686;1253;75700;-24
2023/03/15 09:11:01;;;;;;;6.40;1.30;;;;;;;9.19;38.35;97852.61;105607;1258;74254;-23
2023/03/15 09:13:29;;;;;;;2.80;1.40;;;;;;;9.15;37.97;97853.11;105637;1257;74066;-24
2023/03/15 09:15:59;;;;;;;4.00;1.90;;;;;;;9.18;38.53;97859.60;105578;1253;61277;-24
2023/03/15 09:18:29;;;;;;;2.20;1.60;;;;;;;9.17;37.93;97853.94;105524;1254;61147;-23
2023/03/15 09:20:57;;;;;;;3.50;1.80;;;;;;;8.91;38.75;97858.70;105558;1253;75164;-23
2023/03/15 09:23:27;;;;;;;3.20;1.80;;;;;;;9.04;38.44;97854.35;105589;1257;75861;-24
2023/03/15 09:25:56;;;;;;;2.50;1.10;;;;;;;8.82;38.08;97849.81;105781;1258;73868;-24
2023/03/15 09:28:25;;;;;;;3.90;1.50;;;;;;;8.82;38.96;97854.34;105664;1254;61921;-24
2023/03/15 09:30:55;;;;;;;3.80;2.20;;;;;;;8.80;38.33;97856.07;105492;1253;61050;-23
2023/03/15 09:33:27;;;;;;;1.70;1.30;;;;;;;8.85;39.49;97862.03;105541;1253;75448;-23
2023/03/15 09:36:00;;;;;;;3.60;2.00;;;;;;;8.87;38.86;97863.02;105575;1257;75465;-23
2023/03/15 09:38:29;;;;;;;6.50;2.30;;;;;;;8.92;38.89;97860.66;105558;1253;73333;-24
2023/03/15 09:40:59;;;;;;;3.00;1.80;;;;;;;9.00;38.44;97867.33;105683;1255;62176;-24
2023/03/15 09:43:37;;;;;;;1.40;1.20;;;;;;;8.87;38.27;97863.22;105716;1258;61610;-23
2023/03/15 09:46:34;;;;;;;2.00;1.40;;;;;;;9.15;38.82;97864.70;105586;1253;75211;-23
2023/03/15 09:49:32;;;;;;;3.20;1.80;;;;;;;9.50;39.15;97863.48;105702;1253;74839;-24
2023/03/15 09:52:10;;;;;;;2.90;1.60;;;;;;;10.08;38.00;97857.02;105726;1254;72970;-23
2023/03/15 09:54:45;;;;;;;2.20;1.40;;;;;;;10.35;36.89;97846.09;105716;1254;61644;-23
2023/03/15 09:57:20;;;;;;;3.50;1.40;;;;;;;10.71;36.92;97839.92;105663;1261;61901;-24
2023/03/15 09:59:51;;;;;;;4.30;2.00;;;;;;;11.10;36.88;97832.86;105651;1253;75837;-23
2023/03/15 10:02:23;;;;;;;5.60;2.50;;;;;;;11.17;35.47;97839.98;105684;1253;75787;-24
2023/03/15 10:04:55;;;;;;;3.80;2.10;;;;;;;11.22;35.53;97840.66;105613;1253;72565;-23
2023/03/15 10:07:25;;;;;;;2.90;1.90;;;;;;;11.26;35.29;97835.75;105352;1253;61050;-24
2023/03/15 10:09:57;;;;;;;5.10;2.40;;;;;;;11.40;35.71;97837.94;105533;1253;61170;-24
2023/03/15 10:12:40;;;;;;;6.10;1.50;;;;;;;11.24;34.82;97838.02;105621;1253;75394;-23
2023/03/15 10:15:19;;;;;;;2.40;1.50;;;;;;;11.15;35.37;97831.30;105667;1259;75850;-23
2023/03/15 10:18:25;;;;;;;3.60;1.50;;;;;;;11.55;34.94;97830.50;105540;1253;74147;-23
2023/03/15 10:21:10;;;;;;;2.90;1.80;;;;;;;11.26;34.80;97827.60;105365;1258;61267;-23
2023/03/15 10:23:50;;;;;;;7.40;1.40;;;;;;;10.80;35.70;97837.45;105279;1253;61546;-23
2023/03/15 10:26:22;;;;;;;4.60;1.50;;;;;;;10.64;36.47;97841.02;105428;1253;74405;-24
2023/03/15 10:28:50;;;;;;;4.80;2.20;;;;;;;10.14;36.65;97845.91;105313;1260;75287;-23
2023/03/15 10:31:23;;;;;;;3.90;2.20;;;;;;;10.27;37.53;97852.92;105772;1253;73252;-23
2023/03/15 10:34:10;;;;;;;1.80;1.20;;;;;;;10.75;36.97;97845.05;105706;1261;61805;-24
2023/03/15 10:36:53;;;;;;;1.50;1.30;;;;;;;11.24;35.89;97844.27;105680;1260;62574;-24
2023/03/15 10:39:23;;;;;;;3.80;1.30;;;;;;;11.33;35.42;97844.07;105624;1258;74353;-24
2023/03/15 10:41:52;;;;;;;4.00;1.80;;;;;;;11.44;34.01;97842.98;105281;1253;75232;-23
2023/03/15 10:44:24;;;;;;;2.80;1.60;;;;;;;11.69;34.29;97835.68;105426;1258;74002;-24
2023/03/15 10:47:02;;;;;;;7.10;2.50;;;;;;;11.59;33.26;97839.68;105510;1253;61854;-24
2023/03/15 10:49:58;;;;;;;4.40;1.70;;;;;;;11.44;34.42;97830.91;105486;1259;61739;-23
2023/03/15 10:52:27;;;;;;;4.10;1.80;;;;;;;10.92;34.49;97837.90;105414;1258;75281;-23
2023/03/15 10:54:56;;;;;;;2.00;1.40;;;;;;;10.79;35.59;97840.54;105574;1253;74854;-23
2023/03/15 10:57:34;;;;;;;3.60;1.60;;;;;;;10.69;35.66;97841.34;105356;1253;73942;-24
2023/03/15 11:00:19;;;;;;;2.10;1.60;;;;;;;10.50;35.77;97840.02;105211;1258;61163;-23
2023/03/15 11:03:00;;;;;;;3.30;2.00;;;;;;;10.33;36.13;97837.65;105629;1253;60997;-24
2023/03/15 11:05:31;;;;;;;3.40;2.20;;;;;;;10.35;36.47;97836.04;105320;1253;75684;-23
2023/03/15 11:08:00;;;;;;;2.70;1.80;;;;;;;10.53;36.92;97838.94;105290;1253;74720;-23
2023/03/15 11:10:33;;;;;;;5.10;2.30;;;;;;;10.30;36.17;97836.23;105529;1253;73999;-23
2023/03/15 11:13:12;;;;;;;2.40;1.70;;;;;;;10.28;36.14;97838.33;105400;1253;61680;-23
2023/03/15 11:15:48;;;;;;;4.80;2.20;;;;;;;10.38;35.65;97835.90;105297;1259;61683;-23
2023/03/15 11:18:19;;;;;;;3.20;1.60;;;;;;;10.38;36.44;97836.23;105463;1253;75372;-24
2023/03/15 11:20:47;;;;;;;2.80;1.90;;;;;;;10.42;36.68;97840.59;105395;1259;75796;-24
2023/03/15 11:23:25;;;;;;;3.60;1.90;;;;;;;10.26;35.98;97842.45;105441;1258;74138;-23
2023/03/15 11:25:55;;;;;;;8.60;1.70;;;;;;;10.24;36.35;97838.85;105692;1258;61201;-24
2023/03/15 11:28:34;;;;;;;3.90;1.80;;;;;;;9.99;35.77;97835.73;105691;1261;61148;-24
2023/03/15 11:31:03;;;;;;;3.00;1.30;;;;;;;9.97;36.00;97827.13;105679;1261;75008;-23
2023/03/15 11:33:57;;;;;;;3.00;1.80;;;;;;;9.88;35.57;97832.20;105972;1253;75987;-23
2023/03/15 11:36:27;;;;;;;3.90;1.70;;;;;;;9.74;36.25;97827.41;105568;1253;74141;-23
2023/03/15 11:38:55;;;;;;;4.20;1.60;;;;;;;9.78;36.44;97827.06;105361;1262;61174;-23
2023/03/15 11:41:27;;;;;;;1.80;1.30;;;;;;;9.95;36.32;97817.95;105623;1254;61790;-23
2023/03/15 11:44:17;;;;;;;2.90;1.50;;;;;;;10.05;35.79;97817.88;105547;1261;75320;-23
2023/03/15 11:46:51;;;;;;;2.50;1.90;;;;;;;10.04;36.30;97820.05;105704;1261;75877;-23
2023/03/15 11:49:32;;;;;;;3.30;1.80;;;;;;;10.12;36.44;97815.62;105602;1252;74425;-23
2023/03/15 11:52:01;;;;;;;2.70;1.80;;;;;;;10.27;36.49;97806.52;105398;1253;62079;-23
2023/03/15 11:54:30;;;;;;;2.60;1.50;;;;;;;10.43;36.80;97799.89;105362;1253;61851;-24
2023/03/15 11:57:05;;;;;;;3.80;1.80;;;;;;;10.43;35.37;97794.36;105324;1253;75395;-24
2023/03/15 11:59:40;;;;;;;2.70;1.90;;;;;;;10.47;35.26;97792.55;105275;1261;75855;-23
2023/03/15 12:02:09;;;;;;;4.00;2.00;;;;;;;10.47;35.44;97788.59;105317;1253;73994;-24
2023/03/15 12:04:46;;;;;;;4.90;2.20;;;;;;;10.52;35.25;97785.31;105623;1257;62025;-24
2023/03/15 12:07:16;;;;;;;3.70;1.80;;;;;;;10.62;35.52;97785.02;105215;1261;61838;-24